createdAt,value
2023-02-12T00:00:39.884Z,100312.14
2023-02-12T00:03:13.502Z,100311.30
2023-02-12T00:05:42.066Z,100297.71
2023-02-12T00:08:12.306Z,100292.91
2023-02-12T00:10:48.471Z,100288.08
2023-02-12T00:13:18.059Z,100293.85
2023-02-12T00:15:46.575Z,100275.12
2023-02-12T00:18:20.667Z,100274.59
2023-02-12T00:20:54.456Z,100271.64
2023-02-12T00:23:27.958Z,100272.67
2023-02-12T00:25:56.937Z,100270.45
2023-02-12T00:28:26.102Z,100263.93
2023-02-12T00:30:54.605Z,100267.88
2023-02-12T00:33:24.850Z,100258.59
2023-02-12T00:35:59.267Z,100257.56
2023-02-12T00:38:27.549Z,100255.73
2023-02-12T00:40:56.126Z,100249.83
2023-02-12T00:43:27.529Z,100244.59
2023-02-12T00:45:56.524Z,100237.48
2023-02-12T00:48:35.600Z,100233.71
2023-02-12T00:51:09.000Z,100230.59
2023-02-12T00:53:42.809Z,100224.45
2023-02-12T00:56:11.373Z,100219.96
2023-02-12T00:58:39.716Z,100217.86
2023-02-12T01:01:15.012Z,100207.46
2023-02-12T01:03:44.788Z,100210.71
2023-02-12T01:06:12.938Z,100207.63
2023-02-12T01:08:46.665Z,100210.23
2023-02-12T01:11:20.611Z,100211.95
2023-02-12T01:13:51.418Z,100207.11
2023-02-12T01:16:21.909Z,100202.44
2023-02-12T01:18:55.501Z,100203.38
2023-02-12T01:21:31.135Z,100201.02
2023-02-12T01:23:59.402Z,100201.63
2023-02-12T01:26:28.911Z,100200.13
2023-02-12T01:28:59.374Z,100200.08
2023-02-12T01:31:30.890Z,100202.69
2023-02-12T01:34:04.906Z,100196.19
2023-02-12T01:36:34.825Z,100202.64
2023-02-12T01:39:04.614Z,100190.83
2023-02-12T01:41:36.255Z,100185.88
2023-02-12T01:44:21.522Z,100181.66
2023-02-12T01:46:55.110Z,100173.89
2023-02-12T01:49:27.106Z,100174.23
2023-02-12T01:52:19.882Z,100163.33
2023-02-12T01:54:49.468Z,100169.56
2023-02-12T01:57:19.076Z,100168.59
2023-02-12T01:59:49.278Z,100166.77
2023-02-12T02:02:17.577Z,100163.43
2023-02-12T02:04:51.345Z,100162.45
2023-02-12T02:07:24.774Z,100159.50
2023-02-12T02:09:54.076Z,100150.81
2023-02-12T02:12:44.781Z,100157.09
2023-02-12T02:15:14.278Z,100151.45
2023-02-12T02:17:47.677Z,100159.45
2023-02-12T02:20:22.932Z,100152.40
2023-02-12T02:23:07.072Z,100143.73
2023-02-12T02:25:55.196Z,100148.15
2023-02-12T02:28:34.204Z,100149.83
2023-02-12T02:31:05.437Z,100136.59
2023-02-12T02:33:54.442Z,100131.00
2023-02-12T02:36:35.310Z,100133.24
2023-02-12T02:39:15.350Z,100130.98
2023-02-12T02:42:00.932Z,100135.36
2023-02-12T02:44:46.946Z,100139.30
2023-02-12T02:47:15.666Z,100142.19
2023-02-12T02:49:58.231Z,100143.80
2023-02-12T02:52:42.074Z,100146.59
2023-02-12T02:55:11.375Z,100139.89
2023-02-12T02:57:51.770Z,100134.48
2023-02-12T03:00:22.219Z,100118.16
2023-02-12T03:03:05.128Z,100121.73
2023-02-12T03:05:40.978Z,100130.44
2023-02-12T03:08:15.054Z,100123.06
2023-02-12T03:10:46.320Z,100120.63
2023-02-12T03:13:47.260Z,100124.02
2023-02-12T03:16:21.705Z,100132.61
2023-02-12T03:19:02.215Z,100127.09
2023-02-12T03:21:43.089Z,100124.46
2023-02-12T03:24:28.191Z,100132.34
2023-02-12T03:27:19.782Z,100131.14
2023-02-12T03:29:48.294Z,100118.93
2023-02-12T03:33:19.722Z,100114.93
2023-02-12T03:36:16.168Z,100114.78
2023-02-12T03:38:47.513Z,100107.27
2023-02-12T03:41:19.574Z,100105.98
2023-02-12T03:44:04.530Z,100112.69
2023-02-12T03:46:41.429Z,100113.94
2023-02-12T03:49:18.077Z,100110.59
2023-02-12T03:51:46.382Z,100110.37
2023-02-12T03:54:20.695Z,100104.71
2023-02-12T03:57:08.828Z,100102.56
2023-02-12T03:59:43.138Z,100106.79
2023-02-12T04:02:11.688Z,100108.05
2023-02-12T04:04:40.171Z,100116.20
2023-02-12T04:07:10.029Z,100111.16
2023-02-12T04:09:38.395Z,100110.61
2023-02-12T04:12:22.553Z,100114.17
2023-02-12T04:15:17.019Z,100110.61
2023-02-12T04:18:17.356Z,100111.52
2023-02-12T04:20:49.040Z,100107.04
2023-02-12T04:23:39.006Z,100108.60
2023-02-12T04:26:33.524Z,100104.70
2023-02-12T04:29:01.776Z,100104.09
2023-02-12T04:31:30.935Z,100103.46
2023-02-12T04:34:15.938Z,100102.99
2023-02-12T04:36:55.070Z,100106.91
2023-02-12T04:39:26.522Z,100100.70
2023-02-12T04:41:59.300Z,100101.23
2023-02-12T04:44:34.751Z,100103.19
2023-02-12T04:47:05.887Z,100106.54
2023-02-12T04:49:34.268Z,100103.86
2023-02-12T04:52:02.749Z,100115.13
2023-02-12T05:02:20.736Z,100109.55
2023-02-12T05:04:50.607Z,100108.44
2023-02-12T05:07:18.825Z,100112.41
2023-02-12T05:09:47.680Z,100112.41
2023-02-12T05:12:15.994Z,100113.70
2023-02-12T05:14:46.986Z,100115.77
2023-02-12T05:17:15.603Z,100118.70
2023-02-12T05:19:43.861Z,100119.64
2023-02-12T05:22:13.293Z,100124.45
2023-02-12T05:24:46.794Z,100123.66
2023-02-12T05:27:15.069Z,100125.38
2023-02-12T05:29:43.452Z,100125.02
2023-02-12T05:32:11.985Z,100125.45
2023-02-12T05:34:40.715Z,100124.84
2023-02-12T05:37:09.195Z,100126.59
2023-02-12T05:39:37.636Z,100134.11
2023-02-12T05:42:10.943Z,100131.77
2023-02-12T05:44:47.435Z,100135.64
2023-02-12T05:47:15.751Z,100134.31
2023-02-12T05:49:43.989Z,100132.08
2023-02-12T05:52:12.681Z,100130.77
2023-02-12T05:54:40.886Z,100135.36
2023-02-12T05:57:09.228Z,100138.00
2023-02-12T05:59:42.402Z,100141.01
2023-02-12T06:02:10.789Z,100140.24
2023-02-12T06:04:39.121Z,100146.64
2023-02-12T06:07:08.197Z,100149.84
2023-02-12T06:09:36.645Z,100147.45
2023-02-12T06:12:05.047Z,100156.38
2023-02-12T06:14:33.385Z,100163.70
2023-02-12T06:17:03.293Z,100163.54
2023-02-12T06:19:31.758Z,100161.00
2023-02-12T06:22:00.481Z,100165.98
2023-02-12T06:24:32.814Z,100163.27
2023-02-12T06:27:01.952Z,100165.63
2023-02-12T06:29:30.515Z,100168.20
2023-02-12T06:32:02.437Z,100172.84
2023-02-12T06:34:31.496Z,100171.92
2023-02-12T06:36:59.669Z,100171.20
2023-02-12T06:39:34.629Z,100176.05
2023-02-12T06:42:02.948Z,100173.92
2023-02-12T06:44:31.539Z,100178.41
2023-02-12T06:46:59.843Z,100185.09
2023-02-12T06:49:28.240Z,100183.38
2023-02-12T06:51:56.444Z,100185.71
2023-02-12T06:54:29.614Z,100185.17
2023-02-12T06:56:57.764Z,100184.30
2023-02-12T06:59:25.874Z,100186.96
2023-02-12T07:01:54.582Z,100184.77
2023-02-12T07:04:22.900Z,100186.58
2023-02-12T07:06:52.290Z,100191.30
2023-02-12T07:09:20.905Z,100193.66
2023-02-12T07:11:54.174Z,100187.84
2023-02-12T07:14:27.805Z,100187.95
2023-02-12T07:16:57.348Z,100186.09
2023-02-12T07:19:25.969Z,100190.37
2023-02-12T07:21:54.693Z,100191.94
2023-02-12T07:24:22.920Z,100193.59
2023-02-12T07:26:53.456Z,100199.33
2023-02-12T07:29:21.642Z,100202.98
2023-02-12T07:31:49.999Z,100204.21
2023-02-12T07:34:19.058Z,100209.28
2023-02-12T07:36:47.230Z,100207.08
2023-02-12T07:39:16.144Z,100205.35
2023-02-12T07:41:44.412Z,100204.48
2023-02-12T07:44:16.007Z,100221.52
2023-02-12T07:46:48.654Z,100225.77
2023-02-12T07:49:20.764Z,100234.89
2023-02-12T07:51:49.885Z,100242.34
2023-02-12T07:54:18.824Z,100251.58
2023-02-12T07:56:53.464Z,100257.73
2023-02-12T07:59:22.387Z,100259.26
2023-02-12T08:01:51.892Z,100265.04
2023-02-12T08:04:21.834Z,100270.84
2023-02-12T08:06:55.484Z,100274.56
2023-02-12T08:09:33.189Z,100280.39
2023-02-12T08:12:07.149Z,100281.31
2023-02-12T08:14:41.207Z,100291.55
2023-02-12T08:17:09.586Z,100293.83
2023-02-12T08:19:37.866Z,100302.80
2023-02-12T08:22:06.804Z,100300.90
2023-02-12T08:24:35.104Z,100309.34
2023-02-12T08:27:03.458Z,100309.48
2023-02-12T08:29:37.112Z,100315.31
2023-02-12T08:32:06.670Z,100316.81
2023-02-12T08:34:35.827Z,100319.08
2023-02-12T08:37:05.521Z,100330.64
2023-02-12T08:39:34.198Z,100338.23
2023-02-12T08:42:02.412Z,100337.19
2023-02-12T08:44:31.801Z,100343.70
2023-02-12T08:47:03.301Z,100342.98
2023-02-12T08:49:32.903Z,100343.73
2023-02-12T08:52:02.662Z,100353.56
2023-02-12T08:54:34.473Z,100352.17
2023-02-12T08:57:02.729Z,100359.77
2023-02-12T08:59:31.258Z,100356.27
2023-02-12T09:02:01.125Z,100363.88
2023-02-12T09:04:30.393Z,100373.20
2023-02-12T09:06:59.766Z,100377.30
2023-02-12T09:09:28.155Z,100375.83
2023-02-12T09:12:07.852Z,100372.69
2023-02-12T09:14:36.535Z,100376.02
2023-02-12T09:17:04.909Z,100377.30
2023-02-12T09:19:33.594Z,100382.38
2023-02-12T09:22:01.917Z,100386.71
2023-02-12T09:24:30.367Z,100386.27
2023-02-12T09:26:58.515Z,100391.68
2023-02-12T09:29:27.478Z,100391.55
2023-02-12T09:31:56.169Z,100399.76
2023-02-12T09:34:24.888Z,100406.64
2023-02-12T09:36:59.098Z,100406.63
2023-02-12T09:39:30.698Z,100410.70
2023-02-12T09:42:20.294Z,100405.70
2023-02-12T09:45:01.469Z,100404.20
2023-02-12T09:47:50.836Z,100401.08
2023-02-12T09:50:30.310Z,100405.02
2023-02-12T09:53:04.481Z,100398.83
2023-02-12T09:55:34.350Z,100401.70
2023-02-12T09:58:09.792Z,100398.89
2023-02-12T10:00:38.443Z,100398.84
2023-02-12T10:03:15.946Z,100395.89
2023-02-12T10:05:54.599Z,100391.58
2023-02-12T10:08:43.958Z,100394.20
2023-02-12T10:11:32.283Z,100387.50
2023-02-12T10:14:09.542Z,100381.65
2023-02-12T10:16:58.067Z,100385.98
2023-02-12T10:19:39.184Z,100386.73
2023-02-12T10:22:19.645Z,100387.36
2023-02-12T10:25:25.431Z,100388.42
2023-02-12T10:27:58.149Z,100405.23
2023-02-12T10:30:53.177Z,100409.90
2023-02-12T10:33:25.908Z,100419.58
2023-02-12T10:36:02.416Z,100409.35
2023-02-12T10:38:32.963Z,100423.47
2023-02-12T10:41:02.696Z,100428.62
2023-02-12T10:43:31.345Z,100423.98
2023-02-12T10:45:59.558Z,100441.36
2023-02-12T10:48:32.199Z,100442.36
2023-02-12T10:51:09.764Z,100455.95
2023-02-12T10:53:40.625Z,100459.91
2023-02-12T10:56:22.007Z,100460.45
2023-02-12T10:58:50.493Z,100470.40
2023-02-12T11:01:29.239Z,100474.20
2023-02-12T11:03:59.131Z,100483.23
2023-02-12T11:06:34.822Z,100482.60
2023-02-12T11:09:11.093Z,100486.88
2023-02-12T11:11:39.528Z,100490.48
2023-02-12T11:14:22.054Z,100486.73
2023-02-12T11:16:55.410Z,100495.89
2023-02-12T11:19:28.393Z,100501.29
2023-02-12T11:22:11.945Z,100505.55
2023-02-12T11:24:46.682Z,100508.42
2023-02-12T11:27:26.525Z,100522.70
2023-02-12T11:30:14.493Z,100523.11
2023-02-12T11:32:44.394Z,100526.17
2023-02-12T11:35:26.409Z,100523.41
2023-02-12T11:37:58.392Z,100528.77
2023-02-12T11:40:36.143Z,100532.48
2023-02-12T11:43:06.138Z,100535.28
2023-02-12T11:45:49.877Z,100534.94
2023-02-12T11:48:38.398Z,100534.20
2023-02-12T11:51:09.360Z,100533.70
2023-02-12T11:53:41.074Z,100533.32
2023-02-12T11:56:11.685Z,100534.92
2023-02-12T11:58:41.584Z,100533.74
2023-02-12T12:01:30.024Z,100535.33
2023-02-12T12:04:14.532Z,100537.55
2023-02-12T12:07:03.678Z,100539.64
2023-02-12T12:10:02.399Z,100548.16
2023-02-12T12:12:53.414Z,100541.60
2023-02-12T12:15:57.590Z,100548.38
2023-02-12T12:19:06.837Z,100551.13
2023-02-12T12:21:51.377Z,100549.60
2023-02-12T12:24:36.833Z,100554.06
2023-02-12T12:27:47.071Z,100556.73
2023-02-12T12:31:00.828Z,100556.89
2023-02-12T12:33:45.820Z,100561.60
2023-02-12T12:36:30.337Z,100566.17
2023-02-12T12:39:53.379Z,100569.34
2023-02-12T12:43:25.789Z,100574.30
2023-02-12T12:46:37.744Z,100582.74
2023-02-12T12:49:35.192Z,100583.89
2023-02-12T12:52:28.908Z,100583.34
2023-02-12T12:55:13.931Z,100585.45
2023-02-12T12:58:12.342Z,100588.96
2023-02-12T13:01:23.142Z,100593.95
2023-02-12T13:04:30.173Z,100591.77
2023-02-12T13:15:40.910Z,100606.13
2023-02-12T13:18:13.784Z,100601.70
2023-02-12T13:20:49.296Z,100608.43
2023-02-12T13:23:31.530Z,100610.13
2023-02-12T13:26:10.824Z,100609.15
2023-02-12T13:29:05.746Z,100615.00
2023-02-12T13:31:34.496Z,100611.55
2023-02-12T13:34:04.272Z,100616.77
2023-02-12T13:36:32.155Z,100610.66
2023-02-12T13:39:04.916Z,100620.95
2023-02-12T13:41:32.364Z,100626.33
2023-02-12T13:44:31.307Z,100622.53
2023-02-12T13:47:11.181Z,100618.86
2023-02-12T13:49:45.297Z,100628.70
2023-02-12T13:52:40.361Z,100627.90
2023-02-12T13:55:31.772Z,100628.73
2023-02-12T13:58:37.604Z,100630.46
2023-02-12T14:01:07.335Z,100638.89
2023-02-12T14:03:36.000Z,100635.23
2023-02-12T14:06:18.912Z,100635.18
2023-02-12T14:08:56.232Z,100643.91
2023-02-12T14:11:24.060Z,100650.21
2023-02-12T14:13:59.951Z,100649.13
2023-02-12T14:16:31.076Z,100657.10
2023-02-12T14:19:36.723Z,100653.79
2023-02-12T14:22:14.694Z,100659.30
2023-02-12T14:24:48.211Z,100665.78
2023-02-12T14:27:32.194Z,100668.04
2023-02-12T14:30:01.048Z,100671.93
2023-02-12T14:32:44.877Z,100671.80
2023-02-12T14:35:38.467Z,100672.80
2023-02-12T14:38:12.096Z,100672.45
2023-02-12T14:40:44.097Z,100675.10
2023-02-12T14:43:30.790Z,100684.06
2023-02-12T14:46:24.568Z,100685.14
2023-02-12T14:48:59.513Z,100694.39
2023-02-12T14:51:33.105Z,100701.34
2023-02-12T14:54:00.563Z,100712.48
2023-02-12T14:56:27.859Z,100716.44
2023-02-12T14:58:58.421Z,100715.11
2023-02-12T15:01:29.614Z,100719.55
2023-02-12T15:03:56.983Z,100724.69
2023-02-12T15:06:37.595Z,100731.70
2023-02-12T15:09:13.554Z,100739.39
2023-02-12T15:12:06.231Z,100739.94
2023-02-12T15:14:35.661Z,100744.67
2023-02-12T15:17:14.729Z,100753.77
2023-02-12T15:20:02.130Z,100757.10
2023-02-12T15:22:36.060Z,100760.67
2023-02-12T15:25:30.201Z,100763.80
2023-02-12T15:35:50.873Z,100772.35
2023-02-12T15:38:36.099Z,100780.13
2023-02-12T15:41:05.070Z,100791.54
2023-02-12T15:43:40.947Z,100789.98
2023-02-12T15:46:21.649Z,100791.86
2023-02-12T15:48:50.247Z,100796.65
2023-02-12T15:51:44.035Z,100803.96
2023-02-12T15:54:19.257Z,100807.91
2023-02-12T15:56:47.632Z,100810.13
2023-02-12T15:59:21.481Z,100820.08
2023-02-12T16:02:07.544Z,100820.61
2023-02-12T16:04:40.796Z,100831.77
2023-02-12T16:07:10.298Z,100838.08
2023-02-12T16:09:39.704Z,100833.63
2023-02-12T16:12:19.003Z,100837.93
2023-02-12T16:14:55.164Z,100844.89
2023-02-12T16:17:39.737Z,100846.40
2023-02-12T16:20:20.292Z,100849.46
2023-02-12T16:22:49.845Z,100857.54
2023-02-12T16:25:26.633Z,100866.21
2023-02-12T16:28:01.644Z,100858.35
2023-02-12T16:30:32.392Z,100862.85
2023-02-12T16:33:01.936Z,100870.56
2023-02-12T16:35:32.947Z,100870.73
2023-02-12T16:38:24.437Z,100867.86
2023-02-12T16:41:18.769Z,100870.90
2023-02-12T16:43:48.806Z,100870.56
2023-02-12T16:46:18.161Z,100868.23
2023-02-12T16:48:51.933Z,100879.50
2023-02-12T16:51:25.162Z,100876.02
2023-02-12T16:53:54.354Z,100880.89
2023-02-12T16:56:23.163Z,100882.74
2023-02-12T16:58:55.628Z,100879.42
2023-02-12T17:01:29.599Z,100877.61
2023-02-12T17:04:03.983Z,100878.93
2023-02-12T17:06:32.851Z,100878.67
2023-02-12T17:09:06.437Z,100877.96
2023-02-12T17:11:35.011Z,100881.54
2023-02-12T17:14:03.617Z,100888.19
2023-02-12T17:16:37.317Z,100881.33
2023-02-12T17:19:06.923Z,100886.65
2023-02-12T17:21:44.859Z,100891.92
2023-02-12T17:24:22.033Z,100898.54
2023-02-12T17:26:56.465Z,100895.50
2023-02-12T17:29:25.310Z,100893.34
2023-02-12T17:31:54.208Z,100899.68
2023-02-12T17:34:23.186Z,100907.48
2023-02-12T17:36:52.453Z,100899.18
2023-02-12T17:39:21.317Z,100902.41
2023-02-12T17:41:51.930Z,100910.03
2023-02-12T17:44:20.701Z,100911.92
2023-02-12T17:46:51.018Z,100912.38
2023-02-12T17:49:19.406Z,100916.59
2023-02-12T17:51:48.781Z,100918.23
2023-02-12T17:54:18.966Z,100920.50
2023-02-12T17:56:52.595Z,100919.36
2023-02-12T17:59:26.021Z,100925.13
2023-02-12T18:01:59.416Z,100926.57
2023-02-12T18:04:32.015Z,100924.30
2023-02-12T18:07:00.913Z,100930.30
2023-02-12T18:09:29.378Z,100932.36
2023-02-12T18:11:59.159Z,100934.75
2023-02-12T18:14:27.724Z,100933.63
2023-02-12T18:16:57.346Z,100938.94
2023-02-12T18:19:27.180Z,100943.06
2023-02-12T18:22:04.161Z,100944.04
2023-02-12T18:24:35.276Z,100947.70
2023-02-12T18:27:03.883Z,100947.88
2023-02-12T18:29:33.678Z,100950.30
2023-02-12T18:32:02.077Z,100947.92
2023-02-12T18:42:28.970Z,100953.85
2023-02-12T18:44:57.549Z,100959.52
2023-02-12T18:47:25.914Z,100959.02
2023-02-12T18:49:54.341Z,100960.63
2023-02-12T18:52:28.084Z,100959.91
2023-02-12T18:54:56.840Z,100961.11
2023-02-12T18:57:25.444Z,100963.69
2023-02-12T18:59:58.943Z,100963.09
2023-02-12T19:02:27.458Z,100963.20
2023-02-12T19:04:56.392Z,100963.66
2023-02-12T19:07:27.377Z,100971.11
2023-02-12T19:09:56.189Z,100974.39
2023-02-12T19:12:26.281Z,100969.66
2023-02-12T19:15:01.189Z,100977.34
2023-02-12T19:17:30.175Z,100976.91
2023-02-12T19:19:58.510Z,100972.98
2023-02-12T19:22:26.836Z,100977.20
2023-02-12T19:24:55.333Z,100980.64
2023-02-12T19:27:30.867Z,100978.74
2023-02-12T19:30:00.265Z,100981.64
2023-02-12T19:32:29.053Z,100986.65
2023-02-12T19:34:57.810Z,100986.73
2023-02-12T19:37:26.116Z,100985.02
2023-02-12T19:39:54.477Z,100991.32
2023-02-12T19:42:23.006Z,100995.33
2023-02-12T19:44:51.181Z,100996.60
2023-02-12T19:47:24.844Z,101003.57
2023-02-12T19:49:53.451Z,101006.08
2023-02-12T19:52:21.677Z,101005.80
2023-02-12T19:54:55.854Z,101012.16
2023-02-12T19:57:25.094Z,101008.86
2023-02-12T19:59:58.975Z,101007.69
2023-02-12T20:02:27.632Z,101012.09
2023-02-12T20:04:56.180Z,101011.02
2023-02-12T20:07:26.172Z,101011.46
2023-02-12T20:09:54.784Z,101018.60
2023-02-12T20:12:22.984Z,101019.14
2023-02-12T20:14:56.851Z,101022.39
2023-02-12T20:17:25.227Z,101025.98
2023-02-12T20:19:54.494Z,101027.45
2023-02-12T20:22:27.906Z,101023.96
2023-02-12T20:24:56.155Z,101023.40
2023-02-12T20:27:24.829Z,101031.13
2023-02-12T20:29:53.554Z,101029.83
2023-02-12T20:32:22.653Z,101032.28
2023-02-12T20:34:51.847Z,101031.67
2023-02-12T20:37:20.849Z,101035.04
2023-02-12T20:39:49.457Z,101040.30
2023-02-12T20:42:17.951Z,101046.21
2023-02-12T20:44:47.027Z,101047.96
2023-02-12T20:47:15.619Z,101048.60
2023-02-12T20:49:44.126Z,101048.95
2023-02-12T20:52:17.846Z,101046.64
2023-02-12T20:54:49.119Z,101046.30
2023-02-12T20:57:18.415Z,101048.25
2023-02-12T20:59:49.192Z,101054.19
2023-02-12T21:02:18.701Z,101055.56
2023-02-12T21:04:46.987Z,101052.81
2023-02-12T21:07:15.310Z,101053.98
2023-02-12T21:09:44.022Z,101059.35
2023-02-12T21:12:12.644Z,101065.95
2023-02-12T21:14:41.048Z,101065.55
2023-02-12T21:17:13.069Z,101068.20
2023-02-12T21:19:41.357Z,101072.67
2023-02-12T21:22:09.591Z,101076.64
2023-02-12T21:24:42.939Z,101074.63
2023-02-12T21:27:12.161Z,101079.92
2023-02-12T21:29:41.846Z,101085.05
2023-02-12T21:32:10.545Z,101087.06
2023-02-12T21:34:40.257Z,101089.87
2023-02-12T21:37:13.642Z,101090.76
2023-02-12T21:39:43.157Z,101091.06
2023-02-12T21:42:11.543Z,101092.64
2023-02-12T21:44:40.142Z,101097.02
2023-02-12T21:47:09.114Z,101095.75
2023-02-12T21:49:37.906Z,101101.60
2023-02-12T21:52:12.043Z,101100.17
2023-02-12T21:54:40.829Z,101103.43
2023-02-12T21:57:09.107Z,101101.52
2023-02-12T21:59:37.586Z,101098.54
2023-02-12T22:02:06.209Z,101095.23
2023-02-12T22:04:34.630Z,101095.54
2023-02-12T22:07:03.761Z,101096.98
2023-02-12T22:09:40.701Z,101096.87
2023-02-12T22:12:14.325Z,101097.07
2023-02-12T22:14:43.298Z,101096.86
2023-02-12T22:17:12.083Z,101099.24
2023-02-12T22:19:46.098Z,101102.20
2023-02-12T22:22:14.471Z,101102.90
2023-02-12T22:24:42.872Z,101106.86
2023-02-12T22:27:11.862Z,101105.21
2023-02-12T22:29:40.116Z,101109.19
2023-02-12T22:32:08.558Z,101110.77
2023-02-12T22:34:42.170Z,101113.33
2023-02-12T22:37:10.881Z,101114.26
2023-02-12T22:39:39.117Z,101115.22
2023-02-12T22:42:07.844Z,101113.54
2023-02-12T22:44:37.061Z,101117.35
2023-02-12T22:47:05.319Z,101114.89
2023-02-12T22:49:38.730Z,101119.54
2023-02-12T22:52:07.113Z,101120.18
2023-02-12T22:54:42.139Z,101121.86
2023-02-12T22:57:10.349Z,101120.00
2023-02-12T22:59:38.691Z,101118.98
2023-02-12T23:02:15.720Z,101123.21
2023-02-12T23:04:44.237Z,101123.73
2023-02-12T23:07:12.518Z,101126.90
2023-02-12T23:09:42.292Z,101138.30
2023-02-12T23:12:15.691Z,101139.27
2023-02-12T23:14:44.118Z,101139.45
2023-02-12T23:17:12.571Z,101142.81
2023-02-12T23:19:40.738Z,101139.10
2023-02-12T23:22:09.150Z,101142.16
2023-02-12T23:24:37.541Z,101143.17
2023-02-12T23:27:06.233Z,101148.44
2023-02-12T23:29:35.436Z,101154.88
2023-02-12T23:32:04.135Z,101158.23
2023-02-12T23:34:32.691Z,101164.92
2023-02-12T23:37:03.172Z,101161.77
2023-02-12T23:39:31.838Z,101164.38
2023-02-12T23:42:00.391Z,101168.70
2023-02-12T23:44:34.212Z,101173.55
2023-02-12T23:47:07.459Z,101171.98
2023-02-12T23:49:37.287Z,101176.23
2023-02-12T23:52:05.588Z,101181.30
2023-02-12T23:54:34.629Z,101176.04
2023-02-12T23:57:08.038Z,101177.05
2023-02-12T23:59:37.080Z,101170.83
